Time;durP1;ratioP1;P1;durP2;ratioP2;P2;SDS_P1;SDS_P2;PMS_P1;PMS_P2;Temp;Humidity;BMP_temperature;BMP_pressure;BME280_temperature;BME280_humidity;BME280_pressure;Samples;Min_cycle;Max_cycle;Signal;HPM_P1;HPM_P2
2021/06/30 00:01:26;;;;;;;3.42;0.93;;;;;;;23.44;56.65;99333.97;5050361;27;101460;-89
2021/06/30 00:03:52;;;;;;;4.47;1.52;;;;;;;23.33;57.44;99342.28;5049268;27;101271;-89
2021/06/30 00:06:18;;;;;;;4.72;1.20;;;;;;;23.30;57.76;99355.97;5053341;27;97047;-89
2021/06/30 00:08:45;;;;;;;3.67;0.95;;;;;;;23.39;57.61;99359.56;5036067;27;96858;-86
2021/06/30 00:11:11;;;;;;;6.25;1.10;;;;;;;23.32;58.23;99380.75;5035490;27;101880;-88
2021/06/30 00:13:38;;;;;;;4.40;1.05;;;;;;;23.22;58.81;99382.69;5046944;27;100267;-88
2021/06/30 00:16:04;;;;;;;5.20;1.33;;;;;;;23.12;58.98;99382.75;5039102;27;96781;-88
2021/06/30 00:18:30;;;;;;;2.03;1.10;;;;;;;23.05;59.45;99392.41;5053163;27;96965;-88
2021/06/30 00:20:55;;;;;;;7.13;1.15;;;;;;;23.00;59.72;99386.69;5035148;27;100195;-89
2021/06/30 00:23:21;;;;;;;3.97;1.33;;;;;;;22.79;60.27;99371.75;5049150;27;100648;-89
2021/06/30 00:25:46;;;;;;;3.58;1.13;;;;;;;22.75;60.30;99366.88;5055690;27;96850;-87
2021/06/30 00:28:12;;;;;;;2.38;1.13;;;;;;;22.76;61.30;99368.56;5053409;27;96969;-89
2021/06/30 00:30:38;;;;;;;8.52;1.50;;;;;;;22.80;61.53;99362.72;5035656;27;101297;-88
2021/06/30 00:33:05;;;;;;;5.97;1.77;;;;;;;22.82;61.42;99358.06;5029012;27;101626;-88
2021/06/30 00:35:31;;;;;;;6.00;1.55;;;;;;;22.66;62.35;99349.06;5035850;27;96671;-89
2021/06/30 00:37:57;;;;;;;6.93;1.77;;;;;;;22.69;62.56;99343.41;5049311;27;97059;-89
2021/06/30 00:40:23;;;;;;;3.30;1.30;;;;;;;22.59;62.98;99335.47;5053541;27;100287;-88
2021/06/30 00:42:49;;;;;;;6.85;2.03;;;;;;;22.56;63.57;99325.91;5024906;27;102250;-89
2021/06/30 00:45:19;;;;;;;3.28;1.50;;;;;;;22.67;63.16;99321.34;5055682;27;96756;-89
2021/06/30 00:47:45;;;;;;;8.02;1.52;;;;;;;22.51;63.65;99309.47;5042424;27;96990;-86
2021/06/30 00:50:14;;;;;;;6.40;1.70;;;;;;;22.45;64.26;99291.38;5042660;27;101326;-89
2021/06/30 00:52:39;;;;;;;6.07;1.85;;;;;;;22.45;64.69;99269.16;5077124;27;98269;-89
2021/06/30 00:55:05;;;;;;;10.38;2.33;;;;;;;22.49;65.09;99263.34;5059305;27;96876;-89
2021/06/30 00:57:31;;;;;;;7.25;1.98;;;;;;;22.52;65.24;99248.84;5043095;27;96807;-89
2021/06/30 00:59:57;;;;;;;8.05;1.60;;;;;;;22.50;65.60;99245.47;5054560;27;100956;-89
2021/06/30 01:02:23;;;;;;;10.38;1.88;;;;;;;22.46;65.17;99191.47;5068999;27;97457;-89
2021/06/30 01:04:49;;;;;;;5.75;1.73;;;;;;;22.50;65.17;99126.00;5042614;27;97012;-88
2021/06/30 01:07:14;;;;;;;3.75;1.80;;;;;;;22.52;65.16;99109.81;5071681;27;96742;-87
2021/06/30 01:09:40;;;;;;;5.75;1.80;;;;;;;22.49;64.99;99081.53;5042161;27;100288;-89
2021/06/30 01:12:05;;;;;;;4.20;1.70;;;;;;;22.51;65.17;99063.50;5058423;27;101749;-89
2021/06/30 01:14:34;;;;;;;10.07;2.28;;;;;;;22.48;65.31;99049.59;5042379;27;96974;-89
2021/06/30 01:17:01;;;;;;;8.18;2.35;;;;;;;22.48;64.85;99049.59;5039991;27;97149;-89
2021/06/30 01:19:27;;;;;;;6.72;1.67;;;;;;;22.39;64.71;99040.69;5055887;27;100261;-89
2021/06/30 01:21:55;;;;;;;7.35;1.33;;;;;;;22.27;65.38;99042.81;5041750;27;101549;-87
2021/06/30 01:24:21;;;;;;;6.72;1.88;;;;;;;22.17;65.85;99039.41;5034931;27;97164;-89
2021/06/30 01:26:48;;;;;;;3.03;1.40;;;;;;;22.25;64.94;99145.50;5070252;27;97150;-86
2021/06/30 01:29:16;;;;;;;5.60;1.63;;;;;;;21.70;66.87;99222.13;5075478;27;98547;-89
2021/06/30 01:31:42;;;;;;;3.70;1.58;;;;;;;21.38;67.37;99200.38;5040360;27;99842;-88
2021/06/30 01:34:07;;;;;;;3.53;1.20;;;;;;;21.31;67.92;99247.31;5055393;27;97572;-88
2021/06/30 01:36:51;;;;;;;8.05;1.40;;;;;;;21.04;68.00;99232.94;5058643;27;97106;-88
2021/06/30 01:39:17;;;;;;;4.93;1.10;;;;;;;20.96;67.84;99235.50;5060082;27;98538;-88
2021/06/30 01:41:43;;;;;;;2.35;1.05;;;;;;;20.89;68.32;99218.41;5056575;27;101383;-88
2021/06/30 01:44:09;;;;;;;2.78;1.13;;;;;;;20.82;67.97;99225.28;5050970;27;98276;-87
2021/06/30 01:46:35;;;;;;;1.45;1.05;;;;;;;20.78;68.12;99222.06;5057645;27;96977;-87
2021/06/30 01:49:01;;;;;;;2.70;0.93;;;;;;;20.57;68.92;99214.25;5057977;27;97414;-88
2021/06/30 01:51:26;;;;;;;3.42;1.25;;;;;;;20.47;69.28;99221.38;5059138;27;97486;-88
2021/06/30 01:53:56;;;;;;;3.30;1.17;;;;;;;20.45;68.99;99218.00;5059250;27;96776;-87
2021/06/30 01:56:27;;;;;;;2.22;1.00;;;;;;;20.51;68.89;99220.97;5042919;27;97205;-88
2021/06/30 01:59:12;;;;;;;3.03;0.93;;;;;;;20.57;68.55;99219.59;5057869;27;99873;-89
2021/06/30 02:01:39;;;;;;;3.00;1.00;;;;;;;20.56;68.37;99215.22;5058914;27;101472;-87
2021/06/30 02:04:05;;;;;;;5.35;1.02;;;;;;;20.64;68.42;99207.34;5038462;27;97313;-87
2021/06/30 02:06:36;;;;;;;3.30;1.13;;;;;;;20.62;68.15;99206.66;5058964;27;97062;-88
2021/06/30 02:09:04;;;;;;;2.33;0.95;;;;;;;20.54;68.26;99198.56;5056940;27;97630;-89
2021/06/30 02:11:29;;;;;;;3.10;0.88;;;;;;;20.38;68.52;99195.59;5075373;27;100325;-88
2021/06/30 02:13:55;;;;;;;4.72;1.00;;;;;;;20.16;69.28;99208.22;5039760;27;97232;-88
2021/06/30 02:16:20;;;;;;;2.65;1.10;;;;;;;20.11;69.82;99213.97;5058573;27;96935;-87
2021/06/30 02:18:46;;;;;;;2.83;1.38;;;;;;;20.09;69.57;99215.06;5058457;27;98085;-89
2021/06/30 02:21:13;;;;;;;2.67;0.90;;;;;;;20.01;70.03;99234.44;5058782;27;98504;-89
2021/06/30 02:23:38;;;;;;;1.60;1.00;;;;;;;20.06;69.83;99239.34;5042562;27;97127;-86
2021/06/30 02:26:04;;;;;;;3.97;1.23;;;;;;;20.10;69.43;99244.25;5053243;27;97126;-88
2021/06/30 02:28:30;;;;;;;3.13;1.23;;;;;;;19.94;69.94;99240.44;5058082;27;98286;-88
2021/06/30 02:30:56;;;;;;;3.13;1.15;;;;;;;19.67;70.40;99245.44;5057889;27;98083;-87
2021/06/30 02:33:21;;;;;;;1.63;0.95;;;;;;;19.64;70.96;99245.69;5039892;27;97076;-89
2021/06/30 02:35:47;;;;;;;1.50;1.00;;;;;;;19.61;70.75;99250.44;5058529;27;97026;-88
2021/06/30 02:38:13;;;;;;;3.17;1.20;;;;;;;19.79;70.27;99250.66;5057749;27;98632;-89
2021/06/30 02:40:39;;;;;;;1.17;1.08;;;;;;;19.81;69.76;99244.22;5055109;27;101268;-88
2021/06/30 02:43:05;;;;;;;3.85;1.10;;;;;;;19.92;70.00;99255.72;5070241;27;97070;-89
2021/06/30 02:45:31;;;;;;;2.42;1.13;;;;;;;19.87;69.63;99258.81;5037315;27;97377;-87
2021/06/30 02:47:57;;;;;;;2.10;0.85;;;;;;;19.89;69.89;99256.81;5052397;27;101457;-89
2021/06/30 02:50:23;;;;;;;2.80;1.10;;;;;;;20.02;69.41;99251.25;5037133;27;101494;-88
2021/06/30 02:52:50;;;;;;;2.55;0.98;;;;;;;20.16;68.97;99250.84;5050676;27;96792;-87
2021/06/30 02:55:16;;;;;;;2.30;0.85;;;;;;;20.20;68.38;99260.25;5058418;27;96900;-88
2021/06/30 02:57:46;;;;;;;1.73;1.00;;;;;;;20.21;68.73;99263.75;5057822;27;98480;-88
2021/06/30 03:00:15;;;;;;;5.00;1.42;;;;;;;20.28;68.40;99256.88;5035964;27;101249;-88
2021/06/30 03:02:40;;;;;;;2.28;1.00;;;;;;;20.32;68.48;99258.28;5048638;27;96966;-88
2021/06/30 03:05:07;;;;;;;2.00;1.27;;;;;;;20.37;68.23;99260.53;5036623;27;97170;-89
2021/06/30 03:07:33;;;;;;;1.75;0.93;;;;;;;20.53;67.76;99252.81;5035677;27;101459;-87
2021/06/30 03:09:58;;;;;;;1.63;0.98;;;;;;;20.50;67.63;99261.91;5052992;27;101621;-88
2021/06/30 03:12:24;;;;;;;2.15;1.10;;;;;;;20.46;67.77;99265.00;5037263;27;97125;-87
2021/06/30 03:14:49;;;;;;;1.67;1.10;;;;;;;20.51;67.46;99276.09;5036910;27;97156;-86
2021/06/30 03:17:15;;;;;;;8.10;1.23;;;;;;;20.39;67.77;99272.75;5036661;27;101542;-88
2021/06/30 03:19:41;;;;;;;1.20;1.00;;;;;;;20.34;68.12;99274.97;5037636;27;100246;-88
2021/06/30 03:22:07;;;;;;;3.28;1.55;;;;;;;20.30;68.47;99278.88;5053948;27;97266;-87
2021/06/30 03:24:32;;;;;;;3.40;1.35;;;;;;;20.38;68.38;99263.03;5037598;27;96984;-88
2021/06/30 03:26:58;;;;;;;4.80;1.60;;;;;;;20.43;68.08;99266.13;5052835;27;98472;-88
2021/06/30 03:29:23;;;;;;;3.65;1.83;;;;;;;20.54;67.90;99268.69;5048114;27;101491;-88
2021/06/30 03:31:49;;;;;;;3.63;1.40;;;;;;;20.76;67.56;99272.03;5071236;27;96902;-86
2021/06/30 03:34:15;;;;;;;2.85;1.50;;;;;;;20.92;67.43;99282.13;5046750;27;97059;-87
2021/06/30 03:36:40;;;;;;;2.00;1.30;;;;;;;21.01;66.75;99287.44;5036636;27;101217;-88
2021/06/30 03:39:06;;;;;;;1.95;1.40;;;;;;;20.90;66.91;99290.25;5056396;27;101785;-88
2021/06/30 03:41:31;;;;;;;1.20;0.90;;;;;;;20.75;67.35;99295.19;5057007;27;97180;-88
2021/06/30 03:43:57;;;;;;;3.17;1.00;;;;;;;20.66;68.15;99308.53;5048347;27;96877;-88
2021/06/30 03:46:22;;;;;;;3.28;1.20;;;;;;;20.65;68.47;99310.34;5052601;27;101007;-88
2021/06/30 03:48:48;;;;;;;3.13;1.00;;;;;;;20.64;68.63;99314.00;5054037;27;100228;-88
2021/06/30 03:51:13;;;;;;;0.90;0.70;;;;;;;20.74;68.82;99319.31;5072879;27;97060;-89
2021/06/30 03:53:39;;;;;;;2.67;0.98;;;;;;;20.85;69.08;99331.66;5056515;27;96859;-87
2021/06/30 03:56:05;;;;;;;1.95;0.90;;;;;;;20.87;68.79;99322.53;5038388;27;101474;-88
2021/06/30 03:58:30;;;;;;;2.05;1.10;;;;;;;20.90;69.20;99332.09;5052864;27;101001;-88
2021/06/30 04:00:57;;;;;;;2.05;0.90;;;;;;;20.81;69.52;99325.78;5034799;27;97098;-88
2021/06/30 04:03:23;;;;;;;3.17;1.00;;;;;;;20.92;69.25;99330.97;5056835;27;97128;-89
2021/06/30 04:05:48;;;;;;;2.03;1.15;;;;;;;20.88;69.72;99332.22;5055862;27;101253;-89
2021/06/30 04:08:14;;;;;;;2.58;1.02;;;;;;;20.85;69.20;99332.50;5052914;27;100382;-89
2021/06/30 04:10:40;;;;;;;2.67;0.95;;;;;;;20.71;69.67;99331.13;5070648;27;97247;-88
2021/06/30 04:13:06;;;;;;;3.10;1.00;;;;;;;20.60;69.90;99330.44;5046830;27;97144;-89
2021/06/30 04:15:31;;;;;;;1.45;0.80;;;;;;;20.54;69.65;99330.00;5037020;27;98385;-88
2021/06/30 04:17:59;;;;;;;1.27;0.93;;;;;;;20.38;70.58;99339.50;5055800;27;100542;-89
2021/06/30 04:20:26;;;;;;;2.97;1.10;;;;;;;20.43;70.41;99347.91;5073517;27;96967;-88
2021/06/30 04:22:51;;;;;;;3.33;1.02;;;;;;;20.36;70.65;99350.28;5056611;27;97088;-85
2021/06/30 04:25:17;;;;;;;3.33;1.15;;;;;;;20.30;71.01;99348.16;5038743;27;101677;-89
2021/06/30 04:27:42;;;;;;;2.15;1.00;;;;;;;20.25;71.46;99345.94;5036013;27;100796;-90
2021/06/30 04:30:10;;;;;;;6.40;1.42;;;;;;;20.29;71.65;99338.50;5034357;27;97262;-88
2021/06/30 04:32:36;;;;;;;2.65;0.93;;;;;;;20.34;71.02;99331.78;5039927;27;96987;-88
2021/06/30 04:35:04;;;;;;;2.67;1.10;;;;;;;20.35;71.11;99327.28;5038054;27;100495;-88
2021/06/30 04:37:29;;;;;;;2.92;1.00;;;;;;;20.30;71.18;99340.16;5052577;27;101825;-88
2021/06/30 04:39:55;;;;;;;5.88;1.40;;;;;;;20.32;71.50;99341.72;5069268;27;96662;-87
2021/06/30 04:42:20;;;;;;;0.98;0.90;;;;;;;20.42;71.38;99354.22;5039661;27;96950;-89
2021/06/30 04:44:46;;;;;;;3.30;0.95;;;;;;;20.45;71.61;99354.81;5072977;27;98533;-89
2021/06/30 04:47:12;;;;;;;5.60;0.88;;;;;;;20.61;71.16;99356.94;5071082;27;98305;-88
2021/06/30 04:49:38;;;;;;;1.13;0.68;;;;;;;20.85;70.08;99351.19;5039204;27;96766;-89
2021/06/30 04:52:04;;;;;;;4.75;0.80;;;;;;;21.09;69.82;99342.75;5051027;27;96829;-88
2021/06/30 04:54:30;;;;;;;3.97;0.80;;;;;;;21.40;69.06;99337.22;5038369;27;101436;-89
2021/06/30 04:56:55;;;;;;;1.00;0.70;;;;;;;21.61;68.34;99343.19;5038751;27;101739;-86
2021/06/30 04:59:21;;;;;;;2.78;0.65;;;;;;;21.69;68.21;99353.13;5055627;27;96951;-89
2021/06/30 05:01:48;;;;;;;2.70;0.80;;;;;;;21.61;68.99;99355.69;5035843;27;97172;-87
2021/06/30 05:04:13;;;;;;;1.15;0.70;;;;;;;21.46;68.66;99348.13;5037930;27;101706;-89
2021/06/30 05:06:39;;;;;;;6.22;0.88;;;;;;;21.58;68.14;99348.81;5052337;27;100945;-87
2021/06/30 05:09:04;;;;;;;1.90;0.88;;;;;;;21.85;67.42;99347.16;5038219;27;96888;-89
2021/06/30 05:11:31;;;;;;;4.38;1.23;;;;;;;22.09;66.38;99346.63;5065908;27;97082;-89
2021/06/30 05:13:57;;;;;;;0.70;0.70;;;;;;;22.08;66.65;99355.63;5041187;27;101662;-88
2021/06/30 05:16:24;;;;;;;1.73;0.90;;;;;;;22.20;66.59;99357.13;5052434;27;101404;-88
2021/06/30 05:18:50;;;;;;;2.95;1.05;;;;;;;22.12;66.70;99354.34;5052223;27;96736;-88
2021/06/30 05:21:16;;;;;;;1.27;0.80;;;;;;;22.19;66.09;99349.25;5053031;27;96730;-88
2021/06/30 05:23:41;;;;;;;4.53;0.90;;;;;;;22.53;65.16;99360.16;5050952;27;101068;-87
2021/06/30 05:26:07;;;;;;;3.17;0.90;;;;;;;22.47;65.24;99363.44;5051381;27;101443;-86
2021/06/30 05:28:33;;;;;;;1.50;0.80;;;;;;;22.31;64.94;99364.94;5075425;27;96780;-88
2021/06/30 05:31:00;;;;;;;1.92;1.10;;;;;;;22.19;65.10;99363.44;5038179;27;97365;-88
2021/06/30 05:33:26;;;;;;;1.05;0.77;;;;;;;22.23;65.89;99366.69;5058490;27;101660;-88
2021/06/30 05:35:52;;;;;;;3.63;1.00;;;;;;;22.11;65.97;99360.69;5059437;27;98307;-88
2021/06/30 05:38:18;;;;;;;4.60;0.82;;;;;;;22.20;65.57;99357.13;5075856;27;97128;-88
2021/06/30 05:40:43;;;;;;;4.03;1.25;;;;;;;22.19;65.53;99355.44;5076694;27;96902;-89
2021/06/30 05:43:09;;;;;;;4.00;1.77;;;;;;;21.96;65.51;99356.81;5058411;27;97562;-86
2021/06/30 05:45:34;;;;;;;0.85;0.75;;;;;;;21.67;65.93;99358.63;5076561;27;97967;-88
2021/06/30 05:48:00;;;;;;;0.88;0.88;;;;;;;21.63;66.26;99367.06;5041574;27;96681;-88
2021/06/30 05:50:25;;;;;;;5.10;0.70;;;;;;;21.60;66.50;99370.03;5032554;27;96910;-89
2021/06/30 05:52:51;;;;;;;2.95;0.80;;;;;;;21.63;66.55;99357.22;5023456;27;101622;-88
2021/06/30 05:55:17;;;;;;;1.95;1.00;;;;;;;21.72;66.69;99360.00;5057656;27;100462;-89
2021/06/30 05:57:43;;;;;;;2.97;0.70;;;;;;;22.00;65.75;99352.84;5041395;27;97133;-88
2021/06/30 06:00:14;;;;;;;2.10;0.75;;;;;;;22.65;63.96;99353.56;5043243;27;97352;-86
2021/06/30 06:02:40;;;;;;;3.05;0.70;;;;;;;23.02;63.17;99356.09;5055149;27;101537;-86
2021/06/30 06:05:06;;;;;;;1.85;0.73;;;;;;;22.83;63.57;99369.63;5047916;27;101327;-88
2021/06/30 06:07:32;;;;;;;3.42;0.60;;;;;;;22.74;63.81;99359.84;5052595;27;97171;-84
2021/06/30 06:09:58;;;;;;;1.85;0.52;;;;;;;23.64;60.12;99356.00;5046494;27;97354;-83
2021/06/30 06:12:26;;;;;;;1.27;0.77;;;;;;;23.40;61.26;99350.50;5048920;27;100656;-84
2021/06/30 06:14:51;;;;;;;1.55;0.60;;;;;;;25.32;57.31;99360.44;5045405;27;101388;-84
2021/06/30 06:17:17;;;;;;;4.18;0.88;;;;;;;28.19;50.49;99356.59;5044676;27;96851;-84
2021/06/30 06:19:43;;;;;;;1.13;0.70;;;;;;;28.26;50.37;99353.97;5047205;27;97495;-84
2021/06/30 06:22:08;;;;;;;1.23;0.70;;;;;;;28.09;49.67;99356.84;5041775;27;101635;-84
2021/06/30 06:24:34;;;;;;;2.53;0.98;;;;;;;28.16;47.47;99352.41;5036675;27;101383;-85
2021/06/30 06:27:00;;;;;;;0.93;0.60;;;;;;;30.21;45.28;99360.56;5034749;27;96844;-84
2021/06/30 06:29:27;;;;;;;0.80;0.80;;;;;;;30.90;43.42;99359.50;5056308;27;96921;-84
2021/06/30 06:31:53;;;;;;;1.90;0.90;;;;;;;30.97;42.81;99343.22;5038367;27;101911;-83
2021/06/30 06:34:22;;;;;;;2.35;1.00;;;;;;;30.84;42.29;99357.63;5054749;27;98304;-86
2021/06/30 06:36:48;;;;;;;1.77;0.88;;;;;;;31.73;40.98;99358.19;5052847;27;96990;-84
2021/06/30 06:39:15;;;;;;;5.00;1.40;;;;;;;31.75;40.79;99347.97;5034852;27;97536;-86
2021/06/30 06:41:40;;;;;;;3.80;1.30;;;;;;;31.47;41.23;99354.47;5054686;27;98161;-85
2021/06/30 06:44:07;;;;;;;2.10;1.30;;;;;;;31.51;40.56;99360.34;5054258;27;101110;-86
2021/06/30 06:46:32;;;;;;;2.72;1.40;;;;;;;31.01;41.20;99357.19;5045693;27;97055;-86
2021/06/30 06:48:58;;;;;;;3.88;1.55;;;;;;;32.07;39.44;99356.22;5030351;27;97418;-82
2021/06/30 06:51:25;;;;;;;2.83;1.50;;;;;;;32.35;38.48;99362.16;5053220;27;99058;-83
2021/06/30 06:53:51;;;;;;;9.15;1.50;;;;;;;33.00;37.83;99363.88;5048840;27;101395;-82
2021/06/30 06:56:19;;;;;;;3.13;1.40;;;;;;;33.47;36.81;99372.44;5053655;27;97215;-82
2021/06/30 06:58:45;;;;;;;2.90;1.50;;;;;;;33.87;35.80;99374.78;5072779;27;96859;-82
2021/06/30 07:01:11;;;;;;;1.65;1.48;;;;;;;34.36;35.33;99378.41;5041896;27;101145;-83
2021/06/30 07:03:36;;;;;;;1.40;1.30;;;;;;;33.88;35.98;99371.00;5054758;27;98288;-83
2021/06/30 07:06:02;;;;;;;4.15;1.80;;;;;;;34.22;35.28;99377.75;5030881;27;97077;-83
2021/06/30 07:08:28;;;;;;;4.55;1.38;;;;;;;31.98;38.58;99378.19;5045069;27;97562;-84
2021/06/30 07:10:54;;;;;;;3.47;1.20;;;;;;;30.72;41.08;99390.88;5051581;27;102312;-84
2021/06/30 07:13:19;;;;;;;6.20;1.50;;;;;;;32.85;37.79;99372.31;5034682;27;101655;-89
2021/06/30 07:15:45;;;;;;;2.88;1.50;;;;;;;34.17;35.68;99366.69;5056954;27;96686;-85
2021/06/30 07:18:13;;;;;;;3.25;1.25;;;;;;;34.28;35.40;99365.09;5037932;27;97002;-85
2021/06/30 07:20:39;;;;;;;2.30;1.40;;;;;;;34.49;34.80;99365.41;5034817;27;101498;-83
2021/06/30 07:23:04;;;;;;;3.65;1.55;;;;;;;34.00;35.45;99361.84;5034797;27;101181;-85
2021/06/30 07:25:30;;;;;;;6.65;1.40;;;;;;;35.10;34.25;99366.22;5029566;27;97086;-86
2021/06/30 07:27:55;;;;;;;1.63;1.50;;;;;;;34.76;34.61;99364.22;5029131;27;97236;-85
2021/06/30 07:30:21;;;;;;;1.63;1.30;;;;;;;34.99;34.13;99364.28;5029870;27;100491;-84
2021/06/30 07:32:47;;;;;;;2.63;1.35;;;;;;;35.07;33.95;99372.16;5045130;27;101328;-84
2021/06/30 07:35:13;;;;;;;3.65;1.20;;;;;;;35.37;33.38;99371.22;5030992;27;97323;-84
2021/06/30 07:37:39;;;;;;;5.93;1.33;;;;;;;34.67;34.07;99369.19;5046196;27;97161;-83
2021/06/30 07:40:06;;;;;;;2.42;1.23;;;;;;;35.64;33.04;99374.34;5069586;27;98440;-84
2021/06/30 07:42:31;;;;;;;4.45;1.35;;;;;;;36.21;32.19;99369.00;5050168;27;101845;-84
2021/06/30 07:44:57;;;;;;;2.15;1.42;;;;;;;36.27;32.03;99368.03;5031214;27;97351;-84
2021/06/30 07:47:22;;;;;;;1.77;1.30;;;;;;;36.05;32.18;99375.25;5049966;27;96903;-84
2021/06/30 07:49:48;;;;;;;1.15;1.10;;;;;;;36.36;32.20;99368.47;5030546;27;101737;-83
2021/06/30 07:52:14;;;;;;;2.42;1.30;;;;;;;36.43;32.24;99371.06;5043603;27;101000;-82
2021/06/30 07:54:39;;;;;;;1.70;1.30;;;;;;;36.35;31.96;99388.66;5039670;27;96734;-81
2021/06/30 07:57:05;;;;;;;2.00;1.23;;;;;;;36.85;31.73;99395.34;5026928;27;96864;-82
2021/06/30 07:59:30;;;;;;;1.58;1.40;;;;;;;36.52;31.88;99391.50;5066181;27;98114;-82
2021/06/30 08:01:56;;;;;;;3.13;1.30;;;;;;;35.48;33.54;99405.84;5027364;27;100809;-82
2021/06/30 08:04:22;;;;;;;2.20;1.70;;;;;;;34.53;34.78;99409.41;5030694;27;96726;-81
2021/06/30 08:06:49;;;;;;;3.33;3.05;;;;;;;33.58;35.84;99404.41;5053528;27;96837;-83
2021/06/30 08:09:14;;;;;;;2.70;2.50;;;;;;;34.93;34.46;99409.66;5036906;27;100227;-81
2021/06/30 08:11:40;;;;;;;2.92;2.42;;;;;;;34.07;35.12;99416.25;5066039;27;97884;-82
2021/06/30 08:14:06;;;;;;;3.28;2.97;;;;;;;35.05;33.47;99417.88;5056570;27;96674;-81
2021/06/30 08:16:31;;;;;;;5.43;2.60;;;;;;;34.73;33.94;99413.75;5055041;27;96961;-81
2021/06/30 08:18:57;;;;;;;2.40;2.22;;;;;;;33.32;36.19;99421.75;5036881;27;101257;-79
2021/06/30 08:21:23;;;;;;;2.75;2.55;;;;;;;32.74;37.09;99420.03;5053692;27;100540;-77
2021/06/30 08:23:49;;;;;;;2.70;2.50;;;;;;;33.65;36.19;99413.31;5054462;27;97244;-80
2021/06/30 08:26:15;;;;;;;4.22;3.10;;;;;;;34.29;35.14;99415.78;5043005;27;97174;-79
2021/06/30 08:28:41;;;;;;;3.80;2.22;;;;;;;33.72;35.78;99408.66;5048170;27;98171;-79
2021/06/30 08:31:06;;;;;;;2.42;2.20;;;;;;;35.40;33.25;99414.38;5044486;27;98374;-86
2021/06/30 08:33:32;;;;;;;3.72;2.50;;;;;;;35.54;33.28;99413.09;5036348;27;97065;-85
2021/06/30 08:35:58;;;;;;;4.43;2.20;;;;;;;34.74;33.49;99413.53;5061832;27;96926;-85
2021/06/30 08:38:23;;;;;;;4.50;1.98;;;;;;;33.55;35.36;99415.72;5049986;27;101561;-85
2021/06/30 08:40:56;;;;;;;7.28;2.20;;;;;;;32.85;36.10;99416.63;5024074;27;101182;-86
2021/06/30 08:43:22;;;;;;;3.92;1.92;;;;;;;32.28;37.58;99422.94;5033174;27;97091;-86
2021/06/30 08:45:48;;;;;;;5.25;1.80;;;;;;;33.73;35.68;99432.06;5063539;27;96970;-87
2021/06/30 08:48:16;;;;;;;3.80;1.85;;;;;;;32.47;37.39;99432.94;5049820;27;101445;-87
2021/06/30 08:50:42;;;;;;;15.25;5.45;;;;;;;31.93;38.41;99432.25;5028543;27;101055;-84
2021/06/30 08:53:12;;;;;;;11.93;6.00;;;;;;;31.74;38.85;99443.97;5070494;27;97438;-84
2021/06/30 08:55:42;;;;;;;8.82;4.25;;;;;;;31.84;38.29;99449.78;5028228;27;100303;-85
2021/06/30 08:58:07;;;;;;;13.60;5.63;;;;;;;31.51;38.99;99445.22;5045269;27;102151;-82
2021/06/30 09:00:33;;;;;;;3.97;2.60;;;;;;;31.43;39.12;99445.44;5026086;27;101713;-83
2021/06/30 09:03:01;;;;;;;10.90;5.00;;;;;;;31.73;38.88;99458.53;5033498;27;97213;-83
2021/06/30 09:07:55;;;;;;;2.13;1.92;;;;;;;31.21;39.40;99460.19;5047432;27;101318;-82
2021/06/30 09:10:28;;;;;;;2.50;2.30;;;;;;;31.35;38.32;99461.91;5047659;27;97350;-83
2021/06/30 09:12:54;;;;;;;2.83;1.98;;;;;;;30.84;39.38;99460.53;5067365;27;97212;-84
2021/06/30 09:15:20;;;;;;;3.67;2.00;;;;;;;30.44;40.64;99457.66;5029562;27;97158;-80
2021/06/30 09:17:47;;;;;;;5.35;2.17;;;;;;;30.35;40.51;99461.59;5029111;27;102193;-81
2021/06/30 09:20:13;;;;;;;2.40;2.20;;;;;;;30.34;40.59;99464.47;5033122;27;100982;-80
2021/06/30 09:22:45;;;;;;;2.88;2.58;;;;;;;30.45;40.84;99455.78;5031536;27;97512;-80
2021/06/30 09:25:30;;;;;;;3.15;2.78;;;;;;;30.24;40.68;99454.03;5028931;27;97149;-80
2021/06/30 09:27:56;;;;;;;3.15;2.50;;;;;;;29.97;41.60;99450.31;5064430;27;99235;-80
2021/06/30 09:30:22;;;;;;;3.47;3.17;;;;;;;30.02;40.94;99458.69;5048099;27;101004;-80
2021/06/30 09:32:57;;;;;;;2.97;2.50;;;;;;;30.17;41.29;99458.56;5044134;27;97246;-80
2021/06/30 09:35:34;;;;;;;5.60;2.75;;;;;;;29.89;41.65;99448.59;5052249;27;97327;-80
2021/06/30 09:38:26;;;;;;;3.47;2.35;;;;;;;30.82;40.19;99446.38;5029367;27;100029;-80
2021/06/30 09:40:52;;;;;;;2.60;2.40;;;;;;;31.07;40.13;99435.78;5051643;27;98596;-80
2021/06/30 09:43:26;;;;;;;7.68;2.00;;;;;;;30.85;40.27;99439.72;5056138;27;96829;-85
2021/06/30 09:45:52;;;;;;;2.80;2.60;;;;;;;30.09;41.10;99439.78;5035498;27;97391;-84
2021/06/30 09:48:32;;;;;;;4.38;2.63;;;;;;;30.17;42.03;99440.44;5038338;27;101236;-85
2021/06/30 09:50:59;;;;;;;3.40;2.20;;;;;;;30.15;42.06;99453.34;5073617;27;97901;-84
2021/06/30 09:53:37;;;;;;;3.60;2.15;;;;;;;30.37;41.55;99448.69;5029748;27;97475;-84
2021/06/30 09:56:32;;;;;;;5.70;2.42;;;;;;;30.53;40.65;99455.63;5030260;27;97422;-84
2021/06/30 09:59:19;;;;;;;4.30;2.30;;;;;;;30.41;41.49;99455.38;5048674;27;102062;-84
2021/06/30 10:01:57;;;;;;;3.30;1.98;;;;;;;30.22;40.88;99447.97;5055385;27;99942;-84
2021/06/30 10:04:30;;;;;;;3.17;2.55;;;;;;;30.34;41.29;99454.50;5038550;27;97250;-84
2021/06/30 10:07:11;;;;;;;3.35;2.47;;;;;;;30.28;41.37;99455.28;5073166;27;97291;-84
2021/06/30 10:09:41;;;;;;;3.85;2.35;;;;;;;29.83;41.33;99441.28;5042349;27;101129;-85
2021/06/30 10:12:12;;;;;;;3.13;2.50;;;;;;;29.27;42.83;99460.16;5047091;27;100501;-83
2021/06/30 10:14:39;;;;;;;4.53;3.00;;;;;;;29.42;42.89;99451.97;5066726;27;96725;-85
2021/06/30 10:17:07;;;;;;;3.17;2.25;;;;;;;28.98;42.86;99450.28;5047592;27;97255;-83
2021/06/30 10:19:34;;;;;;;3.63;2.33;;;;;;;28.95;43.99;99453.38;5044843;27;101908;-82
2021/06/30 10:21:59;;;;;;;4.25;2.33;;;;;;;28.53;43.83;99455.81;5049954;27;98438;-82
2021/06/30 10:24:25;;;;;;;5.00;2.58;;;;;;;27.64;45.79;99458.47;5051916;27;97399;-83
2021/06/30 10:26:52;;;;;;;3.20;2.70;;;;;;;27.53;45.93;99450.81;5047601;27;97241;-83
2021/06/30 10:29:17;;;;;;;5.75;2.50;;;;;;;27.17;46.45;99453.31;5052482;27;97279;-82
2021/06/30 10:31:45;;;;;;;3.25;2.45;;;;;;;26.89;47.48;99455.69;5050523;27;97423;-82
2021/06/30 10:34:13;;;;;;;3.13;2.20;;;;;;;27.15;47.17;99450.81;5055401;27;96817;-83
2021/06/30 10:36:46;;;;;;;3.90;2.10;;;;;;;27.19;46.88;99451.28;5054701;27;96900;-81
2021/06/30 10:39:16;;;;;;;3.25;2.25;;;;;;;27.35;46.12;99453.84;5055558;27;100327;-82
2021/06/30 10:41:52;;;;;;;2.97;2.75;;;;;;;27.62;46.62;99452.41;5054926;27;101000;-82
2021/06/30 10:44:26;;;;;;;2.50;2.10;;;;;;;27.74;44.91;99452.81;5055594;27;97127;-82
2021/06/30 10:46:53;;;;;;;2.22;2.05;;;;;;;27.43;45.11;99452.91;5037670;27;97233;-82
2021/06/30 10:49:29;;;;;;;8.35;2.28;;;;;;;27.28;45.57;99466.34;5054809;27;101176;-82
2021/06/30 10:52:03;;;;;;;4.50;2.63;;;;;;;27.08;46.28;99458.75;5050815;27;101600;-82
2021/06/30 10:54:32;;;;;;;4.90;2.35;;;;;;;26.94;46.15;99467.59;5053908;27;97123;-82
2021/06/30 10:57:19;;;;;;;4.88;2.78;;;;;;;26.87;46.56;99469.31;5050520;27;97245;-84
2021/06/30 11:00:04;;;;;;;4.30;2.10;;;;;;;27.13;46.17;99471.66;5071973;27;98044;-81
2021/06/30 11:02:32;;;;;;;5.18;1.90;;;;;;;27.54;45.34;99457.88;5053308;27;101764;-83
2021/06/30 11:05:13;;;;;;;3.65;1.88;;;;;;;27.76;44.98;99469.63;5037903;27;96805;-84
2021/06/30 11:07:39;;;;;;;3.38;2.20;;;;;;;27.80;45.16;99467.44;5054647;27;96861;-82
2021/06/30 11:10:17;;;;;;;3.20;2.90;;;;;;;27.08;46.58;99471.34;5037236;27;100940;-82
2021/06/30 11:12:54;;;;;;;3.58;2.97;;;;;;;27.10;46.89;99478.22;5084230;27;101553;-83
2021/06/30 11:15:35;;;;;;;3.13;2.50;;;;;;;26.92;47.10;99476.84;5037533;27;96984;-84
2021/06/30 11:18:04;;;;;;;3.40;2.10;;;;;;;26.69;47.47;99477.66;5055583;27;96923;-83
2021/06/30 11:20:48;;;;;;;4.85;2.10;;;;;;;26.09;48.61;99483.56;5054863;27;101749;-83
2021/06/30 11:23:24;;;;;;;4.03;2.47;;;;;;;26.24;48.70;99471.13;5072415;27;98271;-83
2021/06/30 11:25:54;;;;;;;2.80;2.50;;;;;;;26.12;48.52;99483.22;5037796;27;97066;-91
2021/06/30 11:28:30;;;;;;;2.45;2.20;;;;;;;26.06;48.64;99476.69;5039089;27;96814;-93
2021/06/30 11:30:59;;;;;;;5.03;2.30;;;;;;;26.10;48.47;99480.72;5039657;27;101759;-93
2021/06/30 11:33:25;;;;;;;2.58;2.38;;;;;;;26.15;48.43;99481.06;5044266;27;101734;-94